Time;durP1;ratioP1;P1;durP2;ratioP2;P2;SDS_P1;SDS_P2;PMS_P1;PMS_P2;Temp;Humidity;BMP_temperature;BMP_pressure;BME280_temperature;BME280_humidity;BME280_pressure;Samples;Min_cycle;Max_cycle;Signal;HPM_P1;HPM_P2
2023/08/25 00:01:23;;;;;;;39.33;21.17;;;19.10;1.00;;;;;;5024740;28;20235;-80
2023/08/25 00:03:49;;;;;;;37.33;21.85;;;19.00;1.00;;;;;;5028878;28;20397;-80
2023/08/25 00:06:15;;;;;;;41.28;22.77;;;19.00;1.00;;;;;;5025568;28;20036;-80
2023/08/25 00:08:41;;;;;;;42.22;21.73;;;19.00;1.00;;;;;;5020913;28;20041;-80
2023/08/25 00:11:07;;;;;;;39.30;21.73;;;19.00;1.00;;;;;;5029342;28;20025;-80
2023/08/25 00:13:37;;;;;;;40.80;22.10;;;18.90;1.00;;;;;;5038026;28;20048;-80
2023/08/25 00:16:04;;;;;;;35.08;20.48;;;18.90;1.00;;;;;;5028812;28;20026;-81
2023/08/25 00:18:31;;;;;;;36.80;20.52;;;18.90;1.00;;;;;;5026030;28;20037;-80
2023/08/25 00:20:57;;;;;;;44.00;23.00;;;18.90;1.00;;;;;;5037494;28;20368;-80
2023/08/25 00:23:23;;;;;;;45.25;22.10;;;18.90;1.00;;;;;;5028313;28;20716;-80
2023/08/25 00:25:49;;;;;;;36.60;20.77;;;18.90;1.00;;;;;;5019122;28;20059;-80
2023/08/25 00:28:15;;;;;;;36.65;19.38;;;19.00;1.00;;;;;;5026460;28;20043;-80
2023/08/25 00:30:41;;;;;;;38.70;19.17;;;18.90;1.00;;;;;;5026400;28;20038;-80
2023/08/25 00:33:07;;;;;;;36.50;20.08;;;19.00;1.00;;;;;;5028630;28;20060;-80
2023/08/25 00:35:34;;;;;;;32.25;19.63;;;19.00;1.00;;;;;;5030376;28;20067;-80
2023/08/25 00:38:00;;;;;;;31.70;18.65;;;19.00;1.00;;;;;;5034456;28;20037;-80
2023/08/25 00:40:26;;;;;;;30.60;19.30;;;19.10;1.00;;;;;;5031582;28;20044;-79
2023/08/25 00:42:52;;;;;;;30.80;18.40;;;19.20;1.00;;;;;;5031100;28;20037;-80
2023/08/25 00:45:19;;;;;;;30.85;19.42;;;19.30;1.00;;;;;;5032775;28;20041;-80
2023/08/25 00:47:45;;;;;;;31.08;18.83;;;19.40;1.00;;;;;;5035710;28;20033;-80
2023/08/25 00:50:11;;;;;;;27.20;17.95;;;19.50;1.00;;;;;;5034403;28;20464;-80
2023/08/25 00:52:38;;;;;;;30.95;19.40;;;19.50;1.00;;;;;;5031383;28;20052;-80
2023/08/25 00:55:05;;;;;;;29.55;18.50;;;19.50;1.00;;;;;;5037139;28;20508;-81
2023/08/25 00:57:34;;;;;;;33.20;18.70;;;19.60;1.00;;;;;;5038855;28;20045;-80
2023/08/25 01:00:02;;;;;;;31.83;18.75;;;19.70;1.00;;;;;;5035448;28;20169;-80
2023/08/25 01:02:29;;;;;;;29.85;18.60;;;19.70;1.00;;;;;;5031956;28;20378;-79
2023/08/25 01:04:56;;;;;;;32.97;19.77;;;19.80;1.00;;;;;;5036017;28;20056;-81
2023/08/25 01:07:22;;;;;;;32.17;18.88;;;19.80;1.00;;;;;;5027868;28;20137;-79
2023/08/25 01:09:49;;;;;;;34.55;18.67;;;19.80;1.00;;;;;;5023609;28;20061;-79
2023/08/25 01:12:39;;;;;;;30.80;18.02;;;19.90;1.00;;;;;;5029017;28;20377;-80
2023/08/25 01:15:12;;;;;;;29.33;16.48;;;19.80;1.00;;;;;;5024738;28;20057;-81
2023/08/25 01:17:57;;;;;;;29.88;17.60;;;19.90;1.00;;;;;;5035671;28;20470;-80
2023/08/25 01:20:25;;;;;;;28.98;15.77;;;19.90;1.00;;;;;;5035706;28;20111;-79
2023/08/25 01:23:14;;;;;;;27.00;16.15;;;19.80;1.00;;;;;;5034893;28;20045;-79
2023/08/25 01:25:41;;;;;;;27.75;17.38;;;19.80;2.50;;;;;;5032472;28;20034;-79
2023/08/25 01:28:07;;;;;;;27.45;16.48;;;19.90;4.40;;;;;;5026075;28;20034;-80
2023/08/25 01:30:35;;;;;;;29.73;16.55;;;19.80;6.10;;;;;;5032606;28;20041;-80
2023/08/25 01:33:05;;;;;;;25.92;16.45;;;19.80;7.90;;;;;;5027767;28;20037;-80
2023/08/25 01:35:50;;;;;;;;;;;19.80;10.20;;;;;;5022299;28;20025;-80
2023/08/25 01:38:36;;;;;;;30.15;16.05;;;19.80;12.10;;;;;;5030429;28;19921;-79
2023/08/25 01:41:28;;;;;;;29.65;16.88;;;19.80;15.00;;;;;;5037136;28;20037;-81
2023/08/25 01:43:56;;;;;;;32.08;16.77;;;19.70;17.30;;;;;;5035144;28;20054;-79
2023/08/25 01:46:23;;;;;;;26.50;16.33;;;19.70;18.80;;;;;;5032436;28;20056;-80
2023/08/25 01:48:55;;;;;;;29.58;15.57;;;19.70;21.00;;;;;;5033369;28;20037;-80
2023/08/25 01:51:22;;;;;;;26.58;16.38;;;19.70;23.10;;;;;;5024143;28;20045;-80
2023/08/25 01:53:54;;;;;;;28.10;16.85;;;19.70;24.70;;;;;;5028101;28;20029;-80
2023/08/25 01:56:22;;;;;;;26.02;15.38;;;19.70;26.30;;;;;;5029815;28;20053;-80
2023/08/25 01:58:49;;;;;;;28.77;15.38;;;19.70;30.70;;;;;;5015930;28;20041;-79
2023/08/25 02:01:16;;;;;;;25.02;15.32;;;19.70;33.80;;;;;;5033868;28;20033;-80
2023/08/25 02:03:42;;;;;;;27.45;16.55;;;19.70;35.50;;;;;;5021726;28;20053;-80
2023/08/25 02:06:09;;;;;;;30.88;17.63;;;19.70;37.40;;;;;;5030223;28;20042;-81
2023/08/25 02:08:35;;;;;;;26.92;16.25;;;19.70;39.70;;;;;;5031095;28;20471;-79
2023/08/25 02:11:03;;;;;;;28.10;15.65;;;19.70;42.80;;;;;;5033166;28;20048;-80
2023/08/25 02:13:29;;;;;;;32.45;16.20;;;19.70;44.70;;;;;;5036054;28;20026;-80
2023/08/25 02:15:56;;;;;;;26.23;16.05;;;19.60;46.40;;;;;;5036248;28;20045;-80
2023/08/25 02:18:24;;;;;;;27.98;16.33;;;19.60;47.70;;;;;;5018752;28;20085;-80
2023/08/25 02:20:50;;;;;;;27.25;15.52;;;19.70;49.40;;;;;;5027168;28;20037;-79
2023/08/25 02:23:16;;;;;;;35.42;16.60;;;19.70;51.10;;;;;;5039563;28;20044;-80
2023/08/25 02:25:42;;;;;;;28.65;16.48;;;19.80;53.20;;;;;;5036658;28;20035;-79
2023/08/25 02:28:09;;;;;;;30.15;16.80;;;19.80;56.00;;;;;;5030703;28;20052;-81
2023/08/25 02:30:36;;;;;;;27.05;14.82;;;19.70;57.60;;;;;;5037130;28;20048;-79
2023/08/25 02:33:02;;;;;;;25.63;15.23;;;19.70;60.40;;;;;;5025963;28;20056;-79
2023/08/25 02:35:28;;;;;;;27.23;14.50;;;19.70;62.90;;;;;;5028538;28;20037;-79
2023/08/25 02:38:04;;;;;;;25.65;15.52;;;19.70;65.40;;;;;;5032757;28;20052;-79
2023/08/25 02:40:31;;;;;;;32.13;14.88;;;19.60;67.80;;;;;;5027023;28;20475;-79
2023/08/25 02:43:02;;;;;;;21.33;14.05;;;19.60;69.70;;;;;;5022311;28;20033;-79
2023/08/25 02:45:29;;;;;;;23.63;13.85;;;19.50;71.40;;;;;;5031129;28;20072;-80
2023/08/25 02:47:56;;;;;;;24.00;13.73;;;19.50;73.90;;;;;;5039100;28;20390;-79
2023/08/25 02:50:24;;;;;;;28.67;14.70;;;19.50;75.60;;;;;;5032184;28;20100;-80
2023/08/25 02:52:50;;;;;;;22.92;14.95;;;19.50;78.10;;;;;;5032082;28;20037;-79
2023/08/25 02:55:19;;;;;;;26.42;13.68;;;19.50;85.00;;;;;;5029368;28;20034;-79
2023/08/25 02:57:46;;;;;;;20.90;13.52;;;19.40;86.10;;;;;;5029739;28;20033;-79
2023/08/25 03:00:20;;;;;;;23.73;13.77;;;19.40;87.30;;;;;;5022644;28;20046;-80
2023/08/25 03:02:48;;;;;;;21.75;13.00;;;19.40;88.90;;;;;;5020834;28;20041;-80
2023/08/25 03:05:14;;;;;;;20.42;12.75;;;19.40;90.20;;;;;;5028397;28;20398;-79
2023/08/25 03:07:41;;;;;;;20.45;12.68;;;19.30;90.80;;;;;;5036293;28;20517;-80
2023/08/25 03:10:09;;;;;;;23.08;13.18;;;19.30;91.30;;;;;;5029494;28;20049;-81
2023/08/25 03:12:36;;;;;;;18.60;12.35;;;19.20;91.50;;;;;;5038761;28;20041;-80
2023/08/25 03:15:03;;;;;;;20.27;12.90;;;19.20;91.60;;;;;;5031191;28;20041;-79
2023/08/25 03:17:29;;;;;;;25.73;13.70;;;19.10;91.80;;;;;;5029241;28;20029;-80
2023/08/25 03:19:55;;;;;;;22.17;13.95;;;19.10;91.90;;;;;;5028112;28;20037;-80
2023/08/25 03:22:23;;;;;;;24.60;13.27;;;19.10;91.90;;;;;;5029336;28;20041;-80
2023/08/25 03:24:49;;;;;;;22.67;13.23;;;19.10;92.00;;;;;;5024212;28;20037;-81
2023/08/25 03:27:15;;;;;;;24.67;14.55;;;19.10;92.00;;;;;;5029126;28;20054;-80
2023/08/25 03:29:42;;;;;;;23.20;13.63;;;19.00;92.00;;;;;;5033877;28;20037;-80
2023/08/25 03:32:08;;;;;;;20.88;12.55;;;19.00;92.10;;;;;;5034853;28;20036;-81
2023/08/25 03:34:34;;;;;;;24.58;13.48;;;19.00;92.10;;;;;;5028237;28;20045;-79
2023/08/25 03:37:03;;;;;;;31.17;14.85;;;19.00;92.20;;;;;;5030197;28;20048;-80
2023/08/25 03:39:29;;;;;;;26.67;13.73;;;19.00;92.30;;;;;;5033289;28;20220;-79
2023/08/25 03:41:59;;;;;;;23.77;13.43;;;19.00;93.10;;;;;;5028882;28;20045;-79
2023/08/25 03:44:25;;;;;;;25.23;14.07;;;19.00;93.50;;;;;;5017324;28;20459;-79
2023/08/25 03:46:51;;;;;;;25.10;15.07;;;19.10;94.10;;;;;;5029408;28;20033;-79
2023/08/25 03:49:17;;;;;;;26.70;15.02;;;19.10;94.80;;;;;;5027921;28;20037;-80
2023/08/25 03:51:44;;;;;;;24.63;14.05;;;19.00;96.10;;;;;;5031530;28;20085;-80
2023/08/25 03:54:11;;;;;;;26.00;14.77;;;19.10;96.70;;;;;;5033268;28;20037;-81
2023/08/25 03:56:39;;;;;;;25.00;14.32;;;19.00;97.20;;;;;;5035785;28;20038;-79
2023/08/25 03:59:05;;;;;;;25.70;13.68;;;19.00;97.70;;;;;;5027464;28;20057;-79
2023/08/25 04:01:31;;;;;;;25.75;14.02;;;19.00;98.20;;;;;;5022552;28;20616;-79
2023/08/25 04:03:57;;;;;;;26.52;14.63;;;19.00;98.80;;;;;;5031656;28;20044;-80
2023/08/25 04:06:23;;;;;;;23.67;13.43;;;19.00;99.70;;;;;;5025259;28;20059;-81
2023/08/25 04:08:49;;;;;;;25.58;14.40;;;19.00;99.90;;;;;;5020962;28;20038;-80
2023/08/25 04:11:16;;;;;;;28.58;13.57;;;19.00;99.90;;;;;;5028619;28;20474;-81
2023/08/25 04:13:44;;;;;;;27.60;13.82;;;19.00;99.90;;;;;;5039071;28;20044;-81
2023/08/25 04:16:10;;;;;;;24.00;13.93;;;19.10;99.90;;;;;;5033249;28;20379;-81
2023/08/25 04:18:37;;;;;;;27.25;14.68;;;19.10;99.90;;;;;;5033590;28;20402;-83
2023/08/25 04:21:03;;;;;;;23.58;12.90;;;19.10;99.90;;;;;;5040211;28;20045;-83
2023/08/25 04:23:30;;;;;;;24.90;13.50;;;19.10;99.90;;;;;;5035996;28;20048;-82
2023/08/25 04:25:56;;;;;;;23.27;12.88;;;19.10;99.90;;;;;;5033769;28;20033;-82
2023/08/25 04:28:24;;;;;;;28.65;14.35;;;19.10;99.90;;;;;;5030653;28;20045;-83
2023/08/25 04:30:54;;;;;;;25.25;13.43;;;19.20;99.90;;;;;;5034195;28;20049;-83
2023/08/25 04:33:25;;;;;;;27.40;13.23;;;19.20;99.90;;;;;;5032095;28;20042;-83
2023/08/25 04:35:51;;;;;;;28.90;14.68;;;19.30;99.90;;;;;;5035049;28;20033;-83
2023/08/25 04:38:19;;;;;;;29.13;14.60;;;19.30;99.90;;;;;;5042681;28;20725;-83
2023/08/25 04:40:47;;;;;;;26.25;14.45;;;19.40;99.90;;;;;;5037354;28;20371;-81
2023/08/25 04:43:13;;;;;;;26.65;15.02;;;19.50;99.90;;;;;;5027828;28;20041;-81
2023/08/25 04:45:39;;;;;;;29.13;14.25;;;19.50;99.90;;;;;;5034604;28;20037;-81
2023/08/25 04:48:06;;;;;;;24.85;14.75;;;19.50;99.90;;;;;;5040773;22;20042;-80
2023/08/25 04:50:32;;;;;;;25.95;14.63;;;19.50;99.90;;;;;;5033351;28;20156;-80
2023/08/25 04:53:00;;;;;;;27.08;14.23;;;19.50;99.90;;;;;;5035881;28;20046;-80
2023/08/25 04:55:27;;;;;;;20.45;13.15;;;19.40;99.90;;;;;;5037505;28;20036;-84
2023/08/25 04:57:53;;;;;;;22.35;12.40;;;19.40;99.90;;;;;;5042638;28;20045;-81
2023/08/25 05:00:19;;;;;;;22.40;11.93;;;19.40;99.90;;;;;;5034498;28;20343;-90
2023/08/25 05:02:49;;;;;;;19.45;11.15;;;19.40;99.90;;;;;;5018819;28;20045;-85
2023/08/25 05:05:17;;;;;;;18.35;10.68;;;19.40;99.90;;;;;;5033057;28;20048;-88
2023/08/25 05:07:45;;;;;;;18.08;11.10;;;19.30;99.90;;;;;;5036063;28;20037;-86
2023/08/25 05:10:12;;;;;;;25.98;13.15;;;19.40;99.90;;;;;;5035036;28;20045;-81
2023/08/25 05:12:42;;;;;;;26.02;13.90;;;19.40;99.90;;;;;;5037267;28;20041;-83
2023/08/25 05:15:08;;;;;;;21.92;12.23;;;19.40;99.00;;;;;;5028669;28;20045;-82
2023/08/25 05:17:36;;;;;;;24.27;12.45;;;19.40;96.40;;;;;;5037073;28;20398;-83
2023/08/25 05:20:03;;;;;;;24.13;12.35;;;19.40;95.90;;;;;;5035257;28;20405;-83
2023/08/25 05:22:30;;;;;;;22.98;11.15;;;19.40;96.70;;;;;;5052072;28;20048;-83
2023/08/25 05:24:56;;;;;;;23.10;10.95;;;19.40;98.40;;;;;;5037406;28;20040;-84
2023/08/25 05:27:23;;;;;;;22.67;11.90;;;19.40;93.30;;;;;;5046266;28;20040;-85
2023/08/25 05:29:49;;;;;;;23.20;10.88;;;19.40;90.00;;;;;;5036071;28;20334;-85
2023/08/25 05:32:19;;;;;;;20.65;10.57;;;19.40;78.00;;;;;;5047923;28;20048;-86
2023/08/25 05:35:21;;;;;;;19.67;12.07;;;19.40;60.70;;;;;;5032818;28;20386;-84
2023/08/25 05:37:49;;;;;;;19.30;11.52;;;19.40;51.10;;;;;;5035447;28;20045;-84
2023/08/25 05:40:16;;;;;;;18.17;11.50;;;19.40;47.50;;;;;;5042332;28;20052;-84
2023/08/25 05:42:44;;;;;;;21.52;11.80;;;19.40;41.50;;;;;;5035193;28;20052;-83
2023/08/25 05:45:10;;;;;;;21.17;11.20;;;19.40;35.30;;;;;;5043680;28;20033;-91
2023/08/25 05:47:37;;;;;;;23.48;12.15;;;19.40;30.60;;;;;;5042704;28;20052;-86
2023/08/25 05:50:04;;;;;;;25.50;12.20;;;19.40;30.50;;;;;;5033789;28;20060;-84
2023/08/25 05:52:30;;;;;;;23.95;11.18;;;19.40;29.00;;;;;;5024477;28;20029;-83
2023/08/25 05:54:57;;;;;;;21.45;11.38;;;19.40;24.80;;;;;;5016584;28;20041;-85
2023/08/25 05:57:23;;;;;;;19.27;10.50;;;19.40;19.40;;;;;;5031665;28;20044;-86
2023/08/25 05:59:49;;;;;;;17.83;9.30;;;19.40;11.70;;;;;;5047661;28;20051;-84
2023/08/25 06:02:15;;;;;;;15.90;9.43;;;19.40;3.90;;;;;;5052451;28;20336;-85
2023/08/25 06:04:42;;;;;;;12.07;7.53;;;19.30;1.00;;;;;;5054131;28;20029;-86
2023/08/25 06:07:08;;;;;;;14.38;7.88;;;19.30;1.00;;;;;;5048705;28;20037;-85
2023/08/25 06:09:34;;;;;;;10.38;6.55;;;19.20;1.00;;;;;;5052117;28;20434;-83
2023/08/25 06:12:00;;;;;;;8.70;5.45;;;19.00;1.00;;;;;;5052009;28;20033;-87
2023/08/25 06:14:28;;;;;;;13.23;6.32;;;18.90;1.00;;;;;;5048291;28;20425;-87
2023/08/25 06:17:01;;;;;;;6.53;4.68;;;18.80;1.00;;;;;;5052069;28;20040;-89
2023/08/25 06:19:28;;;;;;;7.35;5.00;;;18.60;1.00;;;;;;5047575;28;20040;-86
2023/08/25 06:21:54;;;;;;;12.00;4.95;;;18.60;1.00;;;;;;5051046;28;20052;-89
2023/08/25 06:24:20;;;;;;;7.07;5.10;;;18.60;1.00;;;;;;5050593;28;20017;-85
2023/08/25 06:26:47;;;;;;;10.18;5.03;;;18.60;1.00;;;;;;5048414;28;20021;-85
2023/08/25 06:29:13;;;;;;;7.38;5.05;;;18.60;1.00;;;;;;5051687;28;20044;-85
2023/08/25 06:31:40;;;;;;;8.77;5.50;;;18.50;1.00;;;;;;5050134;28;20458;-89
2023/08/25 06:34:06;;;;;;;11.02;6.18;;;18.50;1.00;;;;;;5052200;28;20032;-85
2023/08/25 06:36:32;;;;;;;10.40;6.80;;;18.50;1.00;;;;;;5052362;28;20029;-89
2023/08/25 06:38:58;;;;;;;13.43;7.75;;;18.50;28.30;;;;;;5057646;28;20035;-88
2023/08/25 06:41:25;;;;;;;12.25;7.63;;;18.60;54.10;;;;;;5047600;28;20087;-89
2023/08/25 06:43:51;;;;;;;14.30;9.10;;;18.70;74.60;;;;;;5074471;28;20032;-87
2023/08/25 06:46:17;;;;;;;13.45;8.23;;;18.70;91.10;;;;;;5037082;28;20025;-86
2023/08/25 06:48:44;;;;;;;14.43;7.13;;;18.80;96.70;;;;;;5052674;28;20481;-87
2023/08/25 06:51:10;;;;;;;13.85;7.50;;;18.80;99.90;;;;;;5050484;28;20051;-89
2023/08/25 06:53:36;;;;;;;12.68;7.65;;;18.80;99.90;;;;;;5055154;28;20504;-89
2023/08/25 06:56:03;;;;;;;10.77;6.75;;;18.80;99.90;;;;;;5058871;28;20041;-88
2023/08/25 06:58:29;;;;;;;12.82;7.07;;;18.90;99.90;;;;;;5062702;28;20045;-90
2023/08/25 07:00:55;;;;;;;11.57;6.80;;;18.90;99.90;;;;;;5051060;28;20041;-88
2023/08/25 07:03:21;;;;;;;10.35;6.43;;;18.80;99.90;;;;;;5074002;28;20021;-84
2023/08/25 07:05:49;;;;;;;12.90;7.47;;;18.90;99.90;;;;;;5058826;28;20021;-84
2023/08/25 07:08:15;;;;;;;13.40;7.35;;;18.90;99.90;;;;;;5070502;28;20043;-86
2023/08/25 07:10:45;;;;;;;10.38;6.72;;;18.90;99.90;;;;;;5060386;28;20029;-89
2023/08/25 07:13:11;;;;;;;13.85;8.18;;;19.00;99.90;;;;;;5031936;28;20037;-82
2023/08/25 07:15:37;;;;;;;11.32;7.43;;;19.00;99.90;;;;;;5047879;28;20077;-89
2023/08/25 07:18:04;;;;;;;13.60;8.27;;;19.00;99.90;;;;;;5050094;28;20041;-84
2023/08/25 07:20:30;;;;;;;12.70;7.47;;;19.00;99.90;;;;;;5049303;28;20053;-83
2023/08/25 07:22:56;;;;;;;12.10;7.00;;;19.00;99.90;;;;;;5048190;28;20029;-89
2023/08/25 07:25:22;;;;;;;12.38;6.43;;;19.00;99.90;;;;;;5050862;28;20036;-88
2023/08/25 07:27:48;;;;;;;10.02;7.05;;;19.00;99.90;;;;;;5050719;28;20381;-89
2023/08/25 07:30:15;;;;;;;9.02;6.35;;;19.00;99.90;;;;;;5050922;28;20036;-89
2023/08/25 07:32:41;;;;;;;10.98;6.60;;;19.00;99.90;;;;;;5033098;28;20033;-89
2023/08/25 07:35:07;;;;;;;11.15;6.82;;;19.00;99.90;;;;;;5049807;28;20047;-89
2023/08/25 07:37:34;;;;;;;10.48;6.75;;;19.10;99.90;;;;;;5050624;28;20418;-89
2023/08/25 07:40:00;;;;;;;14.32;6.68;;;19.20;99.90;;;;;;5033500;28;20049;-89
2023/08/25 07:42:26;;;;;;;10.88;7.05;;;19.10;99.90;;;;;;5050101;28;20035;-89
2023/08/25 07:44:53;;;;;;;12.65;6.75;;;19.20;99.90;;;;;;5050476;28;20051;-89
2023/08/25 07:47:19;;;;;;;10.32;6.53;;;19.30;99.90;;;;;;5048200;28;20033;-93
2023/08/25 07:49:45;;;;;;;9.90;6.53;;;19.50;99.90;;;;;;5050586;28;20403;-86
2023/08/25 07:52:11;;;;;;;11.55;7.10;;;19.80;99.90;;;;;;5050305;28;20033;-89
2023/08/25 07:54:38;;;;;;;10.35;6.35;;;20.50;99.90;;;;;;5051905;28;20032;-93
2023/08/25 07:57:04;;;;;;;7.07;4.22;;;20.50;99.90;;;;;;5052189;28;20029;-91
2023/08/25 07:59:30;;;;;;;6.28;3.80;;;20.40;99.90;;;;;;5052195;28;20048;-94
2023/08/25 08:01:56;;;;;;;6.07;2.70;;;20.30;99.90;;;;;;5051580;28;20028;-93
2023/08/25 08:04:23;;;;;;;5.47;3.30;;;20.20;99.90;;;;;;5050542;28;20036;-85
2023/08/25 08:06:49;;;;;;;7.60;3.92;;;20.00;55.50;;;;;;5025287;28;20029;-87
2023/08/25 08:09:17;;;;;;;4.60;3.28;;;20.00;2.60;;;;;;5050807;28;20033;-88
2023/08/25 08:11:43;;;;;;;4.93;3.30;;;19.90;1.00;;;;;;5050698;28;20296;-88
2023/08/25 08:14:09;;;;;;;8.05;3.22;;;20.00;1.00;;;;;;5033752;28;20039;-87
2023/08/25 08:16:36;;;;;;;6.18;3.65;;;20.10;1.00;;;;;;5048970;28;20051;-88
2023/08/25 08:19:02;;;;;;;7.20;3.15;;;20.10;1.00;;;;;;5050869;28;20037;-88
2023/08/25 08:21:28;;;;;;;6.53;3.83;;;20.10;1.00;;;;;;5049524;28;20393;-89
2023/08/25 08:23:54;;;;;;;8.45;3.78;;;20.10;1.00;;;;;;5050388;28;20050;-88
2023/08/25 08:26:22;;;;;;;4.35;3.25;;;20.10;1.00;;;;;;5033686;28;20036;-88
2023/08/25 08:28:48;;;;;;;7.57;3.60;;;20.10;1.00;;;;;;5051244;28;20033;-88
2023/08/25 08:31:18;;;;;;;7.13;3.50;;;20.10;1.00;;;;;;5029307;28;20036;-85
2023/08/25 08:33:47;;;;;;;4.35;3.38;;;20.00;99.90;;;;;;5049922;28;20575;-89
2023/08/25 08:36:15;;;;;;;6.65;3.17;;;20.10;99.90;;;;;;5051651;28;20033;-86
2023/08/25 08:38:41;;;;;;;4.32;3.05;;;20.10;99.90;;;;;;5050329;28;20033;-86
2023/08/25 08:41:10;;;;;;;4.93;2.95;;;20.20;1.00;;;;;;5047717;28;20048;-85
2023/08/25 08:43:42;;;;;;;6.88;3.60;;;20.30;1.00;;;;;;5050219;28;20387;-83
2023/08/25 08:46:10;;;;;;;4.50;2.45;;;20.60;99.90;;;;;;5047449;28;20041;-88
2023/08/25 08:48:36;;;;;;;6.40;3.60;;;21.00;99.90;;;;;;5049968;28;20057;-85
2023/08/25 08:51:04;;;;;;;4.90;2.70;;;21.30;99.90;;;;;;5050354;28;20037;-85
2023/08/25 08:53:31;;;;;;;3.40;2.10;;;21.70;99.90;;;;;;5031668;28;20036;-87
2023/08/25 08:55:59;;;;;;;3.17;2.17;;;21.70;99.90;;;;;;5033247;28;20045;-89
2023/08/25 08:58:25;;;;;;;4.85;2.00;;;21.70;85.10;;;;;;5026973;28;20382;-91
2023/08/25 09:00:52;;;;;;;3.08;2.35;;;21.50;1.00;;;;;;5050326;28;20036;-86
2023/08/25 09:03:21;;;;;;;4.38;1.50;;;21.30;12.90;;;;;;5050936;28;20036;-86
2023/08/25 09:05:47;;;;;;;3.65;2.22;;;21.20;1.00;;;;;;5053532;28;20044;-87
2023/08/25 09:08:15;;;;;;;4.40;1.63;;;21.50;1.00;;;;;;5054374;28;20025;-90
2023/08/25 09:10:41;;;;;;;5.00;2.00;;;21.80;1.00;;;;;;5039434;28;20025;-90
2023/08/25 09:13:07;;;;;;;3.85;1.33;;;21.80;1.00;;;;;;5058194;28;20442;-88
2023/08/25 09:15:33;;;;;;;2.97;1.67;;;22.00;1.00;;;;;;5053845;28;20028;-90
2023/08/25 09:18:05;;;;;;;1.95;1.27;;;22.30;99.90;;;;;;5053911;28;20037;-90
2023/08/25 09:20:35;;;;;;;4.80;1.70;;;22.10;99.90;;;;;;5038701;28;20056;-85
2023/08/25 09:23:02;;;;;;;;;;;22.10;99.90;;;;;;5054853;28;20036;-86
2023/08/25 09:25:29;;;;;;;3.60;1.50;;;22.30;99.90;;;;;;5057615;28;19904;-83
2023/08/25 09:27:59;;;;;;;3.25;1.27;;;22.30;99.90;;;;;;5054345;28;20377;-86
2023/08/25 09:30:35;;;;;;;2.25;1.23;;;22.40;99.90;;;;;;5054390;28;20032;-87
2023/08/25 09:33:06;;;;;;;3.20;1.75;;;23.00;99.90;;;;;;5036332;28;20049;-89
2023/08/25 09:35:33;;;;;;;2.53;1.20;;;23.40;99.90;;;;;;5039301;28;20046;-89
2023/08/25 09:37:59;;;;;;;4.25;2.00;;;23.40;72.70;;;;;;5064910;28;20037;-90
2023/08/25 09:40:27;;;;;;;2.00;1.00;;;23.20;55.30;;;;;;5055489;28;20043;-85
2023/08/25 09:43:01;;;;;;;5.82;2.38;;;23.20;92.60;;;;;;5054147;28;20037;-86
2023/08/25 09:45:29;;;;;;;3.58;1.50;;;22.90;99.90;;;;;;5050883;28;20024;-83
2023/08/25 09:48:09;;;;;;;1.92;1.00;;;22.90;99.90;;;;;;5076815;28;20055;-85
2023/08/25 09:50:40;;;;;;;2.15;0.90;;;22.90;93.20;;;;;;5077489;28;20035;-85
2023/08/25 09:53:08;;;;;;;1.77;1.17;;;22.80;35.30;;;;;;5057352;28;20049;-89
2023/08/25 09:55:38;;;;;;;2.00;0.80;;;22.70;33.20;;;;;;5066073;28;20024;-87
2023/08/25 09:58:09;;;;;;;1.92;0.98;;;22.60;7.70;;;;;;5057891;28;20025;-89
2023/08/25 10:00:39;;;;;;;2.97;1.63;;;22.60;77.20;;;;;;5060226;28;20052;-87
2023/08/25 10:03:10;;;;;;;3.92;1.17;;;22.70;81.30;;;;;;5071071;28;20043;-87
2023/08/25 10:05:41;;;;;;;2.08;1.02;;;22.70;95.30;;;;;;5073382;28;20017;-81
2023/08/25 10:08:08;;;;;;;2.67;1.40;;;22.70;60.50;;;;;;5077549;28;20019;-84
2023/08/25 10:10:37;;;;;;;1.85;1.15;;;22.70;2.10;;;;;;5062051;28;20199;-87
2023/08/25 10:13:04;;;;;;;3.17;0.80;;;22.70;6.70;;;;;;5032810;28;20025;-86
2023/08/25 10:15:32;;;;;;;1.48;0.90;;;22.60;1.00;;;;;;5052824;28;20039;-84
2023/08/25 10:18:02;;;;;;;2.78;0.90;;;22.70;1.00;;;;;;5052790;28;20037;-87
2023/08/25 10:20:29;;;;;;;2.88;1.08;;;22.80;20.30;;;;;;5049671;28;20049;-87
2023/08/25 10:22:57;;;;;;;2.30;1.27;;;22.80;1.00;;;;;;5035003;28;20037;-87
2023/08/25 10:25:29;;;;;;;1.83;1.10;;;22.90;13.50;;;;;;5052586;28;20041;-87
2023/08/25 10:27:57;;;;;;;2.38;2.00;;;23.00;1.00;;;;;;5051569;28;20033;-88
2023/08/25 10:30:24;;;;;;;1.83;0.93;;;23.20;1.00;;;;;;5052827;28;20347;-87
2023/08/25 10:33:08;;;;;;;2.80;1.17;;;23.30;1.00;;;;;;5052450;28;20052;-87
2023/08/25 10:35:46;;;;;;;1.75;1.00;;;23.40;1.00;;;;;;5051336;28;20048;-88
2023/08/25 10:38:18;;;;;;;3.15;1.33;;;23.50;1.00;;;;;;5034595;28;20044;-85
2023/08/25 10:40:56;;;;;;;2.05;1.15;;;23.40;1.00;;;;;;5051809;28;20390;-85
2023/08/25 10:43:27;;;;;;;3.15;1.45;;;23.50;1.00;;;;;;5052268;28;20467;-84
2023/08/25 10:45:53;;;;;;;2.60;1.42;;;23.40;1.00;;;;;;5048581;28;20037;-82
2023/08/25 10:48:21;;;;;;;4.72;1.08;;;23.30;99.90;;;;;;5052606;28;20053;-84
2023/08/25 10:50:51;;;;;;;1.35;0.90;;;23.30;1.00;;;;;;5051854;28;20037;-82
2023/08/25 10:53:44;;;;;;;2.30;1.05;;;23.40;99.90;;;;;;5051341;28;20033;-83
2023/08/25 10:56:21;;;;;;;2.63;1.10;;;23.40;99.90;;;;;;5050687;28;20056;-84
2023/08/25 10:59:02;;;;;;;3.75;1.10;;;23.40;99.90;;;;;;5051137;28;20025;-83
2023/08/25 11:01:37;;;;;;;3.13;1.50;;;23.40;99.90;;;;;;5052047;28;20047;-87
2023/08/25 11:04:11;;;;;;;2.05;1.30;;;23.50;99.90;;;;;;5048940;28;20033;-84
2023/08/25 11:06:48;;;;;;;2.20;1.02;;;23.60;99.90;;;;;;5051348;28;20045;-82
2023/08/25 11:09:20;;;;;;;2.80;1.40;;;23.70;99.90;;;;;;5032814;28;20039;-82
2023/08/25 11:11:55;;;;;;;2.50;1.35;;;23.90;99.90;;;;;;5052523;28;20025;-83
2023/08/25 11:14:27;;;;;;;3.03;1.63;;;24.10;99.90;;;;;;5051961;28;20037;-84
2023/08/25 11:16:53;;;;;;;4.40;0.95;;;24.30;99.90;;;;;;5051427;28;20044;-83
2023/08/25 11:19:20;;;;;;;2.08;0.80;;;24.40;99.90;;;;;;5033381;28;20048;-83
2023/08/25 11:21:59;;;;;;;2.05;0.90;;;24.60;99.90;;;;;;5051502;28;20037;-85
2023/08/25 11:24:27;;;;;;;1.92;1.15;;;24.80;99.90;;;;;;5050808;28;20525;-84
2023/08/25 11:26:53;;;;;;;1.83;0.85;;;24.90;99.90;;;;;;5050738;28;20029;-83
2023/08/25 11:29:19;;;;;;;2.00;1.08;;;25.10;99.90;;;;;;5051632;28;20041;-85
2023/08/25 11:31:46;;;;;;;3.90;1.13;;;25.20;99.90;;;;;;5048021;28;20041;-81
2023/08/25 11:34:14;;;;;;;2.72;1.23;;;25.20;99.90;;;;;;5051491;28;20386;-83
2023/08/25 11:36:41;;;;;;;1.65;0.90;;;25.40;94.90;;;;;;5025352;28;20045;-81
2023/08/25 11:39:15;;;;;;;2.00;1.00;;;25.60;57.70;;;;;;5051093;28;20469;-87
2023/08/25 11:41:41;;;;;;;2.85;1.20;;;25.70;63.80;;;;;;5050261;28;20047;-86
2023/08/25 11:44:10;;;;;;;2.55;1.30;;;25.80;42.50;;;;;;5051524;28;20037;-85
2023/08/25 11:46:36;;;;;;;2.00;1.42;;;25.90;27.20;;;;;;5050666;28;20033;-80
2023/08/25 11:49:04;;;;;;;1.30;0.80;;;26.00;1.00;;;;;;5051588;28;20101;-84
2023/08/25 11:51:30;;;;;;;3.03;1.20;;;26.10;5.80;;;;;;5060380;28;20096;-84
2023/08/25 11:53:57;;;;;;;3.72;2.15;;;26.20;1.00;;;;;;5068836;28;20248;-84
2023/08/25 11:56:23;;;;;;;1.58;1.02;;;25.80;1.40;;;;;;5074703;28;20040;-83
2023/08/25 11:58:50;;;;;;;3.22;1.42;;;25.70;34.50;;;;;;5073806;28;20009;-83
2023/08/25 12:01:16;;;;;;;3.22;1.27;;;25.50;52.80;;;;;;5070889;28;20065;-81
2023/08/25 12:03:44;;;;;;;3.10;1.77;;;25.60;35.70;;;;;;5056173;28;20393;-80
2023/08/25 12:06:11;;;;;;;2.35;1.50;;;25.50;41.00;;;;;;5053786;28;20386;-83
2023/08/25 12:08:39;;;;;;;3.30;2.03;;;25.30;51.20;;;;;;5052418;28;20370;-81
2023/08/25 12:11:07;;;;;;;3.88;2.13;;;25.00;94.40;;;;;;5050899;28;20406;-86
2023/08/25 12:13:35;;;;;;;3.95;1.90;;;25.00;99.90;;;;;;5032429;28;20034;-84
2023/08/25 12:16:04;;;;;;;2.95;1.50;;;24.90;99.90;;;;;;5050230;28;20041;-84
2023/08/25 12:18:35;;;;;;;3.27;1.40;;;25.00;99.90;;;;;;5051283;28;20040;-83
2023/08/25 12:21:04;;;;;;;3.42;1.58;;;25.10;99.90;;;;;;5050221;28;20295;-82
2023/08/25 12:23:34;;;;;;;2.85;1.80;;;25.20;99.90;;;;;;5050361;28;20037;-86
2023/08/25 12:26:03;;;;;;;4.40;1.92;;;25.40;94.90;;;;;;5050331;28;20021;-84
2023/08/25 12:28:30;;;;;;;3.30;1.60;;;25.30;93.70;;;;;;5048798;28;20032;-83
2023/08/25 12:30:56;;;;;;;3.05;1.83;;;25.30;85.00;;;;;;5050301;28;20040;-86
2023/08/25 12:33:23;;;;;;;2.60;1.63;;;25.30;74.30;;;;;;5028697;28;20029;-85
2023/08/25 12:35:50;;;;;;;5.30;2.05;;;25.20;99.90;;;;;;5050396;28;20029;-84
2023/08/25 12:38:16;;;;;;;5.13;1.60;;;25.00;99.90;;;;;;5051411;28;20040;-83
2023/08/25 12:40:42;;;;;;;4.05;2.20;;;25.00;99.90;;;;;;5054147;28;20037;-85
2023/08/25 12:43:09;;;;;;;3.28;1.65;;;24.80;99.90;;;;;;5054548;28;20036;-81
2023/08/25 12:45:35;;;;;;;3.22;1.75;;;24.90;99.90;;;;;;5054797;28;20029;-83